createdAt,value
2019-03-15T11:48:04.095Z,125324.38
2019-03-15T11:50:31.248Z,34892.87
2019-03-15T11:53:00.570Z,36243.58
2019-03-15T11:55:30.197Z,68979.09
2019-03-15T11:58:00.112Z,99442.46
2019-03-15T12:00:29.464Z,117662.16
2019-03-15T12:02:59.399Z,118869.47
2019-03-15T12:05:28.676Z,111427.61
2019-03-15T12:07:58.712Z,113933.81
2019-03-15T12:10:28.840Z,115598.80
2019-03-15T12:12:58.317Z,125203.30
2019-03-15T12:15:27.816Z,127658.85
2019-03-15T12:17:57.263Z,129954.77
2019-03-15T12:20:26.752Z,132233.34
2019-03-15T12:22:56.129Z,133961.80
2019-03-15T12:25:25.427Z,133364.81
2019-03-15T12:27:55.217Z,131553.30
2019-03-15T12:30:24.553Z,129291.44
2019-03-15T12:32:53.872Z,126699.05
2019-03-15T12:35:23.219Z,126128.94
2019-03-15T12:37:54.348Z,125493.80
2019-03-15T12:40:23.716Z,122896.44
2019-03-15T12:42:53.036Z,119093.80
2019-03-15T12:45:22.400Z,117830.40
2019-03-15T12:47:51.778Z,114786.38
2019-03-15T12:50:21.142Z,108255.66
2019-03-15T12:52:51.966Z,104084.91
2019-03-15T12:55:21.371Z,100076.70
2019-03-15T12:57:50.813Z,99522.77
2019-03-15T13:00:20.840Z,96733.41
2019-03-15T13:02:50.411Z,93291.64
2019-03-15T13:05:19.664Z,93049.53
2019-03-15T13:07:49.117Z,91551.80
2019-03-15T13:10:18.510Z,91463.86
2019-03-15T13:12:48.694Z,90269.33
2019-03-15T13:15:18.105Z,89046.28
2019-03-15T13:17:47.493Z,87453.53
2019-03-15T13:20:16.897Z,89352.69
2019-03-15T13:22:46.231Z,87680.64
2019-03-15T13:25:15.680Z,87472.72
2019-03-15T13:27:45.000Z,89896.50
2019-03-15T13:30:14.405Z,83455.72
2019-03-15T13:32:44.181Z,85141.33
2019-03-15T13:35:14.421Z,85117.83
2019-03-15T13:37:43.678Z,84938.92
2019-03-15T13:40:13.098Z,85011.59
2019-03-15T13:42:44.946Z,80647.02
2019-03-15T13:45:15.049Z,83074.74
2019-03-15T13:47:44.416Z,83736.16
2019-03-15T13:50:13.897Z,83066.25
2019-03-15T13:52:50.059Z,82589.56
2019-03-15T13:55:19.984Z,80940.05
2019-03-15T13:57:49.303Z,81216.84
2019-03-15T14:00:18.712Z,81875.95
2019-03-15T14:02:48.611Z,80910.38
2019-03-15T14:05:17.973Z,80000.08
2019-03-15T14:07:48.087Z,76831.59
2019-03-15T14:10:17.435Z,78945.33
2019-03-15T14:12:46.784Z,81867.41
2019-03-15T14:15:16.239Z,85572.87
2019-03-15T14:17:45.503Z,87199.08
2019-03-15T14:20:15.042Z,87011.27
2019-03-15T14:22:44.296Z,90959.09
2019-03-15T14:25:13.750Z,87204.48
2019-03-15T14:27:43.762Z,85907.37
2019-03-15T14:30:13.197Z,88284.74
2019-03-15T14:32:42.617Z,87493.13
2019-03-15T14:35:12.613Z,84610.11
2019-03-15T14:37:42.032Z,82902.45
2019-03-15T14:40:11.317Z,80162.53
2019-03-15T14:42:41.030Z,80314.20
2019-03-15T14:45:10.450Z,78968.03
2019-03-15T14:47:40.408Z,78282.33
2019-03-15T14:50:09.848Z,77649.90
2019-03-15T14:52:39.195Z,76419.02
2019-03-15T14:55:08.652Z,79808.23
2019-03-15T14:57:51.082Z,76155.88
2019-03-15T15:00:11.030Z,74527.64
2019-03-15T15:02:39.113Z,77001.63
2019-03-15T15:05:10.308Z,76524.42
2019-03-15T15:07:39.926Z,75014.86
2019-03-15T15:10:11.295Z,71944.40
2019-03-15T15:12:40.693Z,71296.84
2019-03-15T15:15:12.096Z,68961.30
2019-03-15T15:17:41.586Z,69722.59
2019-03-15T15:20:11.006Z,70022.39
2019-03-15T15:22:40.341Z,71450.25
2019-03-15T15:25:10.311Z,71155.77
2019-03-15T15:27:39.694Z,73348.48
2019-03-15T15:30:09.714Z,72948.69
2019-03-15T15:32:39.059Z,71216.38
2019-03-15T15:35:08.593Z,71292.41
2019-03-15T15:37:38.433Z,69686.14
2019-03-15T15:40:09.544Z,70979.91
2019-03-15T15:42:40.048Z,70996.27
2019-03-15T15:45:10.264Z,69374.73
2019-03-15T15:47:39.736Z,66694.83
2019-03-15T15:50:09.778Z,69572.81
2019-03-15T15:52:39.692Z,69491.59
2019-03-15T15:55:09.240Z,70113.31
2019-03-15T15:57:39.284Z,72285.72
2019-03-15T16:00:10.529Z,73199.75
2019-03-15T16:02:39.881Z,73826.20
2019-03-15T16:05:09.470Z,72900.44
2019-03-15T16:07:38.890Z,74951.81
2019-03-15T16:10:09.948Z,73161.98
2019-03-15T16:12:40.150Z,74572.91
2019-03-15T16:15:10.571Z,76846.23
2019-03-15T16:17:39.853Z,77940.06
2019-03-15T16:20:09.596Z,77387.17
2019-03-15T16:22:39.895Z,78718.67
2019-03-15T16:25:09.373Z,80869.70
2019-03-15T16:27:38.758Z,82945.56
2019-03-15T16:30:10.671Z,84310.64
2019-03-15T16:32:40.052Z,85336.14
2019-03-15T16:35:11.063Z,83007.64
2019-03-15T16:37:40.387Z,83913.56
2019-03-15T16:40:09.936Z,82560.16
2019-03-15T16:42:40.220Z,84267.81
2019-03-15T16:45:15.159Z,86141.39
2019-03-15T16:47:42.366Z,85892.55
2019-03-15T16:50:12.268Z,85963.75
2019-03-15T16:52:41.651Z,84824.25
2019-03-15T16:55:11.232Z,84843.30
2019-03-15T16:57:40.628Z,82988.58
2019-03-15T17:00:11.523Z,83452.50
2019-03-15T17:02:40.916Z,86018.83
2019-03-15T17:05:10.565Z,84487.84
2019-03-15T17:07:40.156Z,84163.45
2019-03-15T17:10:10.643Z,82897.06
2019-03-15T17:12:40.052Z,82639.24
2019-03-15T17:15:11.570Z,87655.69
2019-03-15T17:17:40.969Z,85330.91
2019-03-15T17:20:11.180Z,87485.91
2019-03-15T17:22:40.511Z,90845.65
2019-03-15T17:25:10.482Z,89645.52
2019-03-15T17:27:39.923Z,89814.94
2019-03-15T17:30:11.755Z,86811.88
2019-03-15T17:32:41.104Z,87646.80
2019-03-15T17:35:11.114Z,86326.78
2019-03-15T17:37:40.481Z,86094.19
2019-03-15T17:40:11.724Z,86350.24
2019-03-15T17:42:41.061Z,86172.05
2019-03-15T17:45:10.776Z,86481.03
2019-03-15T17:47:41.033Z,84809.09
2019-03-15T17:50:13.404Z,84041.64
2019-03-15T17:52:42.736Z,86322.44
2019-03-15T17:55:13.496Z,88275.15
2019-03-15T17:57:45.698Z,90735.64
2019-03-15T18:00:23.480Z,91088.65
2019-03-15T18:02:52.973Z,90581.09
2019-03-15T18:05:22.433Z,93452.06
2019-03-15T18:07:51.809Z,103363.74
2019-03-15T18:10:21.143Z,109167.84
2019-03-15T18:12:50.551Z,111406.33
2019-03-15T18:15:19.905Z,112378.39
2019-03-15T18:17:49.211Z,113078.73
2019-03-15T18:20:18.496Z,114399.87
2019-03-15T18:22:47.770Z,114156.97
2019-03-15T18:25:17.049Z,114486.22
2019-03-15T18:27:46.289Z,114446.33
2019-03-15T18:30:15.656Z,115322.77
2019-03-15T18:32:44.893Z,114808.94
2019-03-15T18:35:14.102Z,115087.28
2019-03-15T18:37:43.427Z,115116.48
2019-03-15T18:40:12.848Z,115525.55
2019-03-15T18:42:42.095Z,117006.66
2019-03-15T18:45:13.456Z,116591.33
2019-03-15T18:47:43.656Z,114828.66
2019-03-15T18:50:17.298Z,116246.30
2019-03-15T18:52:46.833Z,118538.42
2019-03-15T18:55:17.101Z,118631.70
2019-03-15T18:57:46.520Z,121111.27
2019-03-15T19:00:18.451Z,122361.08
2019-03-15T19:02:47.799Z,123321.50
2019-03-15T19:05:17.360Z,122935.13
2019-03-15T19:07:46.722Z,124559.88
2019-03-15T19:10:16.105Z,123753.73
2019-03-15T19:12:45.561Z,121688.75
2019-03-15T19:15:15.008Z,121467.27
2019-03-15T19:17:44.427Z,122487.22
2019-03-15T19:20:13.816Z,123542.92
2019-03-15T19:22:43.181Z,123825.62
2019-03-15T19:25:12.550Z,123297.20
2019-03-15T19:27:42.444Z,122341.80
2019-03-15T19:30:12.610Z,121694.76
2019-03-15T19:32:41.946Z,120789.42
2019-03-15T19:35:11.310Z,118655.74
2019-03-15T19:37:41.433Z,116019.79
2019-03-15T19:40:12.335Z,114282.28
2019-03-15T19:42:44.794Z,113961.84
2019-03-15T19:45:12.692Z,111596.58
2019-03-15T19:47:42.023Z,110403.39
2019-03-15T19:50:13.857Z,111667.80
2019-03-15T19:52:43.205Z,107099.32
2019-03-15T19:55:12.991Z,107872.98
2019-03-15T19:57:42.455Z,106358.84
2019-03-15T20:00:14.477Z,106174.12
2019-03-15T20:02:43.821Z,105409.69
2019-03-15T20:05:13.356Z,104848.85
2019-03-15T20:07:42.864Z,104996.49
2019-03-15T20:10:16.084Z,105544.39
2019-03-15T20:12:43.138Z,112388.90
2019-03-15T20:15:12.568Z,114081.16
2019-03-15T20:17:41.948Z,117405.88
2019-03-15T20:20:11.988Z,118101.02
2019-03-15T20:22:41.349Z,116458.67
2019-03-15T20:25:12.144Z,116474.78
2019-03-15T20:27:42.470Z,116089.94
2019-03-15T20:30:21.237Z,117372.89
2019-03-15T20:32:44.905Z,116215.63
2019-03-15T20:35:14.349Z,113687.08
2019-03-15T20:37:43.705Z,113115.20
2019-03-15T20:40:13.126Z,112725.11
2019-03-15T20:42:42.444Z,110779.62
2019-03-15T20:45:13.593Z,110582.57
2019-03-15T20:47:43.005Z,109310.98
2019-03-15T20:50:12.920Z,105943.02
2019-03-15T20:52:42.318Z,103121.94
2019-03-15T20:55:11.635Z,100559.50
2019-03-15T20:57:41.892Z,98553.58
2019-03-15T21:00:13.787Z,96091.50
2019-03-15T21:02:43.226Z,96141.61
2019-03-15T21:05:12.607Z,97230.29
2019-03-15T21:07:43.673Z,95376.62
2019-03-15T21:10:11.848Z,93568.95
2019-03-15T21:12:41.238Z,96840.22
2019-03-15T21:15:11.338Z,96206.75
2019-03-15T21:17:41.198Z,95527.80
2019-03-15T21:20:11.488Z,95030.48
2019-03-15T21:22:40.803Z,95910.34
2019-03-15T21:25:10.541Z,93948.08
2019-03-15T21:27:52.603Z,94067.80
2019-03-15T21:30:13.654Z,93200.42
2019-03-15T21:32:43.968Z,91602.70
2019-03-15T21:35:13.311Z,92667.71
2019-03-15T21:37:42.608Z,90853.70
2019-03-15T21:40:15.141Z,90443.64
2019-03-15T21:42:44.436Z,90684.16
2019-03-15T21:45:13.965Z,88224.67
2019-03-15T21:47:44.269Z,86497.59
2019-03-15T21:50:13.804Z,88080.75
2019-03-15T21:52:43.234Z,87461.86
2019-03-15T21:55:12.585Z,87578.48
2019-03-15T21:57:43.408Z,89216.70
2019-03-15T22:00:14.812Z,86939.84
2019-03-15T22:02:44.789Z,87977.28
2019-03-15T22:05:14.175Z,87692.77
2019-03-15T22:07:43.677Z,89868.30
2019-03-15T22:10:13.098Z,90615.35
2019-03-15T22:12:43.236Z,91677.98
2019-03-15T22:15:12.676Z,90970.17
2019-03-15T22:17:42.340Z,92000.96
2019-03-15T22:20:12.334Z,91799.34
2019-03-15T22:22:42.303Z,89366.23
2019-03-15T22:25:11.735Z,89222.90
2019-03-15T22:27:41.192Z,90793.22
2019-03-15T22:30:10.667Z,92019.48
2019-03-15T22:32:40.085Z,89942.70
2019-03-15T22:35:10.063Z,90391.59
2019-03-15T22:37:39.686Z,92639.45
2019-03-15T22:40:09.015Z,92754.58
2019-03-15T22:42:38.379Z,92915.69
2019-03-15T22:45:07.778Z,92165.41
2019-03-15T22:47:37.090Z,92036.29
2019-03-15T22:50:06.374Z,93545.09
2019-03-15T22:52:35.803Z,91932.83
2019-03-15T22:55:05.245Z,93824.05
2019-03-15T22:57:34.582Z,93903.20
2019-03-15T23:00:04.428Z,93857.44
2019-03-15T23:02:33.771Z,93703.67
2019-03-15T23:05:03.158Z,96938.33
2019-03-15T23:07:32.545Z,98049.94
2019-03-15T23:10:02.757Z,100603.77
2019-03-15T23:12:32.428Z,103257.34
2019-03-15T23:15:01.779Z,104514.98
2019-03-15T23:17:32.071Z,105637.47
2019-03-15T23:20:01.436Z,106497.28
2019-03-15T23:22:30.845Z,104496.80
2019-03-15T23:25:00.488Z,105198.53
2019-03-15T23:27:29.876Z,105454.95
2019-03-15T23:29:59.318Z,106210.44
2019-03-15T23:32:28.699Z,104059.94
2019-03-15T23:34:58.790Z,106033.20
2019-03-15T23:37:28.115Z,103581.66
2019-03-15T23:39:57.484Z,101181.77
2019-03-15T23:42:26.833Z,102548.52
2019-03-15T23:44:56.167Z,102094.46
2019-03-15T23:47:25.524Z,102536.46
2019-03-15T23:49:54.921Z,101999.84
2019-03-15T23:52:24.304Z,100143.02
2019-03-15T23:54:53.591Z,98392.49
2019-03-15T23:57:22.920Z,97413.36
2019-03-15T23:59:52.198Z,96256.00
